Terminal Aerodrome Forecast
Issued by NWS

Home | Current Version | Previous Version | Graphics & Text | Print | Product List | Glossary On
Versions: 1 2 3 4 5 6 7 8 9 10 11 12 13 14 15 16
000
FTUS43 KBIS 232329
TAFMOT
TAF
KMOT 232329Z 2400/2424 31021G32KT P6SM BKN060
     FM240200 31014G23KT P6SM SCT060 BKN110
     FM240500 30009KT P6SM BKN080
     FM241300 30013G22KT P6SM FEW030 BKN060
     FM241500 31020G28KT P6SM SCT045 BKN060=

USA.gov is the U.S. government's official web portal to all federal, state and local government web resources and services.